Time;durP1;ratioP1;P1;durP2;ratioP2;P2;SDS_P1;SDS_P2;PMS_P1;PMS_P2;Temp;Humidity;BMP_temperature;BMP_pressure;BME280_temperature;BME280_humidity;BME280_pressure;Samples;Min_cycle;Max_cycle;Signal;HPM_P1;HPM_P2
2021/05/26 00:00:14;;;;;;;4.83;1.17;;;;;;;;;;5087236;28;20587;-72
2021/05/26 00:03:19;;;;;;;1.83;0.90;;;;;;;;;;5115043;28;20602;-72
2021/05/26 00:06:23;;;;;;;2.27;0.97;;;;;;;;;;5102880;28;20173;-72
2021/05/26 00:09:27;;;;;;;3.40;1.00;;;;;;;;;;5115575;28;20637;-72
2021/05/26 00:12:32;;;;;;;1.80;0.90;;;;;;;;;;5103022;28;20256;-72
2021/05/26 00:15:36;;;;;;;2.07;0.70;;;;;;;;;;5115415;28;20207;-72
2021/05/26 00:18:41;;;;;;;1.50;0.87;;;;;;;;;;5115027;28;20202;-73
2021/05/26 00:21:45;;;;;;;3.43;0.80;;;;;;;;;;5115290;28;20182;-72
2021/05/26 00:24:49;;;;;;;3.63;0.80;;;;;;;;;;5115216;28;20572;-73
2021/05/26 00:27:59;;;;;;;1.47;0.80;;;;;;;;;;5102860;28;20537;-72
2021/05/26 00:31:06;;;;;;;1.33;0.77;;;;;;;;;;5114910;28;20178;-73
2021/05/26 00:34:10;;;;;;;2.37;1.00;;;;;;;;;;5114641;28;20210;-73
2021/05/26 00:37:14;;;;;;;2.40;1.20;;;;;;;;;;5114459;28;20209;-70
2021/05/26 00:40:19;;;;;;;2.00;0.80;;;;;;;;;;5089964;28;20186;-72
2021/05/26 00:43:23;;;;;;;1.57;0.77;;;;;;;;;;5114685;28;20218;-72
2021/05/26 00:46:27;;;;;;;2.73;0.90;;;;;;;;;;5113787;28;20629;-72
2021/05/26 00:49:31;;;;;;;3.77;0.87;;;;;;;;;;5114183;28;20182;-71
2021/05/26 00:52:36;;;;;;;3.23;0.70;;;;;;;;;;5102608;28;20213;-70
2021/05/26 00:55:42;;;;;;;2.87;1.03;;;;;;;;;;5115306;28;20186;-73
2021/05/26 00:58:47;;;;;;;3.60;1.20;;;;;;;;;;5101618;28;20214;-73
2021/05/26 01:01:51;;;;;;;2.40;0.90;;;;;;;;;;5102263;28;20193;-73
2021/05/26 01:04:55;;;;;;;4.33;0.87;;;;;;;;;;5102657;28;20178;-72
2021/05/26 01:07:59;;;;;;;2.10;0.73;;;;;;;;;;5114437;28;20186;-72
2021/05/26 01:11:06;;;;;;;1.63;0.90;;;;;;;;;;5114675;28;20179;-72
2021/05/26 01:14:12;;;;;;;2.20;0.80;;;;;;;;;;5104937;28;20205;-72
2021/05/26 01:17:17;;;;;;;1.47;0.80;;;;;;;;;;5106178;28;20660;-72
2021/05/26 01:20:27;;;;;;;1.60;0.80;;;;;;;;;;5088463;28;20186;-72
2021/05/26 01:23:31;;;;;;;2.63;0.80;;;;;;;;;;5105979;28;20214;-72
2021/05/26 01:26:40;;;;;;;1.47;0.80;;;;;;;;;;5118463;28;20186;-72
2021/05/26 01:30:25;;;;;;;1.80;0.60;;;;;;;;;;5105330;28;20186;-72
2021/05/26 01:33:31;;;;;;;1.20;0.70;;;;;;;;;;5118628;28;20206;-72
2021/05/26 01:36:42;;;;;;;1.47;0.87;;;;;;;;;;5105771;28;20178;-72
2021/05/26 01:39:48;;;;;;;2.03;0.90;;;;;;;;;;5097350;28;20183;-72
2021/05/26 01:42:52;;;;;;;3.67;0.93;;;;;;;;;;5090955;28;20226;-72
2021/05/26 01:45:56;;;;;;;3.60;1.00;;;;;;;;;;5112061;28;20653;-73
2021/05/26 01:49:00;;;;;;;1.37;0.70;;;;;;;;;;5100187;28;20198;-72
2021/05/26 01:52:05;;;;;;;4.50;1.00;;;;;;;;;;5116286;28;20182;-73
2021/05/26 01:55:10;;;;;;;1.17;0.83;;;;;;;;;;5085077;28;20182;-72
2021/05/26 01:58:16;;;;;;;0.80;0.57;;;;;;;;;;5093664;28;20230;-73
2021/05/26 02:01:24;;;;;;;2.03;0.80;;;;;;;;;;5105122;28;20182;-73
2021/05/26 02:04:29;;;;;;;2.33;0.87;;;;;;;;;;5103900;28;20185;-72
2021/05/26 02:07:33;;;;;;;2.53;0.77;;;;;;;;;;5104261;28;20633;-72
2021/05/26 02:14:02;;;;;;;1.60;0.80;;;;;;;;;;5116986;28;20226;-72
2021/05/26 02:17:06;;;;;;;2.60;0.80;;;;;;;;;;5116730;28;20170;-72
2021/05/26 02:20:12;;;;;;;4.23;0.87;;;;;;;;;;5114863;28;20568;-73
2021/05/26 02:23:18;;;;;;;1.83;0.87;;;;;;;;;;5115979;28;20591;-72
2021/05/26 02:26:23;;;;;;;0.97;0.67;;;;;;;;;;5116875;28;20552;-72
2021/05/26 02:29:27;;;;;;;2.10;0.83;;;;;;;;;;5071932;28;20194;-72
2021/05/26 02:32:31;;;;;;;2.50;0.80;;;;;;;;;;5101613;28;20210;-72
2021/05/26 02:35:35;;;;;;;1.77;0.80;;;;;;;;;;5116814;28;20178;-72
2021/05/26 02:38:40;;;;;;;1.80;0.97;;;;;;;;;;5118723;22;20233;-73
2021/05/26 02:41:44;;;;;;;2.30;1.20;;;;;;;;;;5103924;27;20193;-73
2021/05/26 02:44:52;;;;;;;0.73;0.70;;;;;;;;;;5071843;28;20183;-74
2021/05/26 02:47:57;;;;;;;3.23;0.90;;;;;;;;;;5078200;28;20186;-73
2021/05/26 02:51:01;;;;;;;1.17;0.80;;;;;;;;;;5085121;28;20202;-73
2021/05/26 02:54:08;;;;;;;2.37;0.80;;;;;;;;;;5075190;28;20222;-73
2021/05/26 02:57:14;;;;;;;2.17;0.90;;;;;;;;;;5097219;28;20194;-73
2021/05/26 03:00:43;;;;;;;3.27;1.00;;;;;;;;;;5102434;28;20181;-73
2021/05/26 03:03:56;;;;;;;2.53;0.80;;;;;;;;;;5084040;28;20222;-73
2021/05/26 03:07:07;;;;;;;1.87;0.70;;;;;;;;;;5072039;28;20187;-73
2021/05/26 03:10:14;;;;;;;1.00;0.60;;;;;;;;;;5102265;28;20564;-74
2021/05/26 03:13:20;;;;;;;2.77;0.77;;;;;;;;;;5089037;28;20214;-73
2021/05/26 03:16:25;;;;;;;1.87;0.80;;;;;;;;;;5079540;28;20202;-74
2021/05/26 03:19:31;;;;;;;2.00;1.00;;;;;;;;;;5093456;28;20561;-74
2021/05/26 03:22:51;;;;;;;3.27;0.70;;;;;;;;;;5068662;28;20222;-73
2021/05/26 03:26:30;;;;;;;5.17;0.83;;;;;;;;;;5054892;28;20181;-74
2021/05/26 03:29:36;;;;;;;2.27;0.70;;;;;;;;;;5094140;28;20179;-75
2021/05/26 03:32:41;;;;;;;1.57;0.60;;;;;;;;;;5087812;28;20214;-73
2021/05/26 03:35:46;;;;;;;0.77;0.60;;;;;;;;;;5113222;28;20182;-74
2021/05/26 03:38:50;;;;;;;2.43;1.00;;;;;;;;;;5071584;28;20221;-73
2021/05/26 03:41:55;;;;;;;2.23;0.67;;;;;;;;;;5112653;28;20209;-73
2021/05/26 03:45:00;;;;;;;2.57;0.80;;;;;;;;;;5113872;28;20197;-74
2021/05/26 03:48:05;;;;;;;3.30;1.00;;;;;;;;;;5100471;28;20194;-73
2021/05/26 03:51:10;;;;;;;2.90;0.60;;;;;;;;;;5070709;28;20633;-74
2021/05/26 03:54:18;;;;;;;1.97;0.60;;;;;;;;;;5070389;28;20548;-74
2021/05/26 03:57:26;;;;;;;2.30;1.07;;;;;;;;;;5099462;28;20668;-74
2021/05/26 04:00:31;;;;;;;1.20;0.60;;;;;;;;;;5101353;28;20182;-74
2021/05/26 04:03:52;;;;;;;1.40;0.70;;;;;;;;;;5074921;28;20218;-74
2021/05/26 04:06:56;;;;;;;4.10;0.70;;;;;;;;;;5080818;28;20190;-75
2021/05/26 04:10:03;;;;;;;2.13;0.90;;;;;;;;;;5094443;28;20553;-74
2021/05/26 04:13:12;;;;;;;1.17;0.83;;;;;;;;;;5071539;28;20215;-74
2021/05/26 04:16:25;;;;;;;2.70;0.80;;;;;;;;;;5070550;28;20195;-74
2021/05/26 04:19:50;;;;;;;2.07;0.80;;;;;;;;;;5072119;28;20672;-74
2021/05/26 04:22:55;;;;;;;1.07;0.80;;;;;;;;;;5101190;28;20222;-74
2021/05/26 04:26:03;;;;;;;1.63;0.70;;;;;;;;;;5100910;28;20186;-74
2021/05/26 04:29:08;;;;;;;0.73;0.70;;;;;;;;;;5111876;28;20194;-74
2021/05/26 04:32:15;;;;;;;2.17;1.50;;;;;;;;;;5110677;28;20218;-72
2021/05/26 04:35:19;;;;;;;3.63;2.07;;;;;;;;;;5069034;28;20190;-73
2021/05/26 04:38:23;;;;;;;3.17;1.50;;;;;;;;;;5108883;28;20209;-73
2021/05/26 04:41:28;;;;;;;2.47;1.50;;;;;;;;;;5081506;28;20203;-74
2021/05/26 04:44:32;;;;;;;1.77;1.00;;;;;;;;;;5111745;28;20190;-74
2021/05/26 04:47:36;;;;;;;2.30;1.10;;;;;;;;;;5097883;28;20183;-73
2021/05/26 04:50:40;;;;;;;1.67;1.03;;;;;;;;;;5073733;28;20182;-73
2021/05/26 04:53:44;;;;;;;1.23;0.60;;;;;;;;;;5115261;28;20240;-73
2021/05/26 04:56:49;;;;;;;2.57;0.70;;;;;;;;;;5096969;28;20191;-73
2021/05/26 04:59:53;;;;;;;1.73;0.90;;;;;;;;;;5102217;28;20209;-72
2021/05/26 05:02:57;;;;;;;2.40;0.70;;;;;;;;;;5108328;28;20700;-73
2021/05/26 05:06:01;;;;;;;1.13;0.80;;;;;;;;;;5115391;28;20190;-72
2021/05/26 05:09:08;;;;;;;1.73;0.90;;;;;;;;;;5116384;28;20186;-72
2021/05/26 05:12:12;;;;;;;0.97;0.80;;;;;;;;;;5097578;28;20680;-72
2021/05/26 05:15:16;;;;;;;3.93;1.10;;;;;;;;;;5097305;28;20198;-72
2021/05/26 05:18:20;;;;;;;2.70;1.20;;;;;;;;;;5104380;28;20198;-73
2021/05/26 05:21:25;;;;;;;2.70;1.10;;;;;;;;;;5097372;28;20199;-72
2021/05/26 05:24:29;;;;;;;3.60;0.93;;;;;;;;;;5103473;28;20201;-73
2021/05/26 05:27:33;;;;;;;2.27;0.80;;;;;;;;;;5103971;28;20186;-72
2021/05/26 05:30:37;;;;;;;1.90;0.73;;;;;;;;;;5080037;28;20543;-73
2021/05/26 05:33:42;;;;;;;2.83;0.93;;;;;;;;;;5096833;28;20699;-72
2021/05/26 05:36:46;;;;;;;3.67;0.90;;;;;;;;;;5092500;28;20633;-74
2021/05/26 05:39:51;;;;;;;4.97;0.90;;;;;;;;;;5104223;28;20225;-73
2021/05/26 05:42:55;;;;;;;5.30;1.00;;;;;;;;;;5109248;28;20223;-72
2021/05/26 05:46:01;;;;;;;0.97;0.80;;;;;;;;;;5098015;28;20199;-73
2021/05/26 05:49:05;;;;;;;3.07;0.90;;;;;;;;;;5116216;28;20175;-73
2021/05/26 05:52:11;;;;;;;2.57;0.73;;;;;;;;;;5083744;28;20668;-73
2021/05/26 05:55:16;;;;;;;4.57;1.13;;;;;;;;;;5095650;28;20202;-73
2021/05/26 05:58:27;;;;;;;1.57;0.73;;;;;;;;;;5095023;28;20179;-73
2021/05/26 06:01:32;;;;;;;2.70;0.90;;;;;;;;;;5107001;28;20194;-72
2021/05/26 06:04:36;;;;;;;1.40;0.83;;;;;;;;;;5103988;28;20174;-72
2021/05/26 06:07:40;;;;;;;3.87;0.70;;;;;;;;;;5078717;28;20190;-72
2021/05/26 06:10:44;;;;;;;1.70;0.80;;;;;;;;;;5099322;28;20194;-72
2021/05/26 06:13:49;;;;;;;1.27;0.60;;;;;;;;;;5115472;28;20561;-72
2021/05/26 06:16:53;;;;;;;1.70;0.70;;;;;;;;;;5101544;28;20186;-72
2021/05/26 06:19:57;;;;;;;1.53;0.70;;;;;;;;;;5081631;28;20546;-72
2021/05/26 06:23:01;;;;;;;2.80;0.70;;;;;;;;;;5083262;28;20210;-73
2021/05/26 06:26:06;;;;;;;1.27;0.70;;;;;;;;;;5082990;28;20175;-73
2021/05/26 06:29:10;;;;;;;10.07;1.10;;;;;;;;;;5097853;28;20187;-72
2021/05/26 06:32:15;;;;;;;6.27;0.90;;;;;;;;;;5107656;28;20217;-72
2021/05/26 06:35:19;;;;;;;6.57;2.73;;;;;;;;;;5096843;28;20191;-73
2021/05/26 06:38:22;;;;;;;2.83;1.47;;;;;;;;;;5110223;28;20197;-72
2021/05/26 06:41:27;;;;;;;2.63;1.20;;;;;;;;;;5095121;28;20183;-72
2021/05/26 06:44:31;;;;;;;1.40;0.90;;;;;;;;;;5105533;28;20185;-72
2021/05/26 06:47:35;;;;;;;1.37;0.83;;;;;;;;;;5099208;28;20198;-72
2021/05/26 06:50:39;;;;;;;5.57;3.30;;;;;;;;;;5102668;28;20628;-73
2021/05/26 06:53:44;;;;;;;3.47;2.30;;;;;;;;;;5110566;28;20577;-72
2021/05/26 06:56:48;;;;;;;4.40;0.90;;;;;;;;;;5089669;28;20186;-72
2021/05/26 06:59:52;;;;;;;2.73;1.20;;;;;;;;;;5102693;28;20210;-72
2021/05/26 07:02:56;;;;;;;2.13;0.90;;;;;;;;;;5095441;28;20218;-73
2021/05/26 07:06:00;;;;;;;2.50;0.80;;;;;;;;;;5090760;28;20546;-72
2021/05/26 07:09:05;;;;;;;1.87;0.90;;;;;;;;;;5099348;28;20182;-72
2021/05/26 07:12:09;;;;;;;1.43;0.80;;;;;;;;;;5097099;28;20193;-72
2021/05/26 07:15:14;;;;;;;1.53;0.83;;;;;;;;;;5114536;28;20182;-73
2021/05/26 07:18:18;;;;;;;3.63;1.20;;;;;;;;;;5094536;28;20816;-72
2021/05/26 07:21:22;;;;;;;0.90;0.60;;;;;;;;;;5082370;28;20163;-73
2021/05/26 07:24:27;;;;;;;1.20;0.90;;;;;;;;;;5094314;28;20637;-73
2021/05/26 07:27:31;;;;;;;2.80;0.60;;;;;;;;;;5103317;28;20182;-72
2021/05/26 07:30:36;;;;;;;1.77;0.90;;;;;;;;;;5093831;28;20182;-73
2021/05/26 07:33:40;;;;;;;2.10;0.90;;;;;;;;;;5093866;28;20227;-73
2021/05/26 07:36:44;;;;;;;2.13;0.80;;;;;;;;;;5088892;28;20189;-72
2021/05/26 07:39:50;;;;;;;2.70;0.70;;;;;;;;;;5099191;28;20222;-73
2021/05/26 07:42:54;;;;;;;1.77;0.90;;;;;;;;;;5094178;28;20218;-73
2021/05/26 07:45:59;;;;;;;1.97;1.10;;;;;;;;;;5081713;28;20519;-72
2021/05/26 07:49:03;;;;;;;2.00;1.70;;;;;;;;;;5106007;28;20672;-72
2021/05/26 07:52:09;;;;;;;2.20;1.30;;;;;;;;;;5088319;28;20644;-72
2021/05/26 07:55:13;;;;;;;2.40;0.90;;;;;;;;;;5106980;28;20182;-74
2021/05/26 07:58:18;;;;;;;3.13;0.90;;;;;;;;;;5099565;28;20534;-72
2021/05/26 08:01:22;;;;;;;3.60;0.70;;;;;;;;;;5081172;28;20518;-73
2021/05/26 08:04:26;;;;;;;2.13;0.83;;;;;;;;;;5108164;28;20194;-72
2021/05/26 08:07:30;;;;;;;1.37;0.90;;;;;;;;;;5074108;28;20345;-73
2021/05/26 08:10:35;;;;;;;1.63;1.00;;;;;;;;;;5093417;28;20179;-73
2021/05/26 08:13:39;;;;;;;1.87;0.80;;;;;;;;;;5081364;28;20210;-72
2021/05/26 08:16:43;;;;;;;1.77;0.80;;;;;;;;;;5093411;28;20182;-74
2021/05/26 08:19:47;;;;;;;1.33;0.90;;;;;;;;;;5106628;28;20206;-73
2021/05/26 08:22:51;;;;;;;2.23;1.00;;;;;;;;;;5107814;28;20226;-73
2021/05/26 08:25:56;;;;;;;5.00;0.83;;;;;;;;;;5080861;28;20194;-73
2021/05/26 08:29:00;;;;;;;2.30;0.90;;;;;;;;;;5093098;28;20190;-73
2021/05/26 08:32:05;;;;;;;2.67;0.87;;;;;;;;;;5102157;28;20541;-74
2021/05/26 08:35:09;;;;;;;4.60;0.90;;;;;;;;;;5081925;28;20187;-73
2021/05/26 08:38:13;;;;;;;1.83;0.70;;;;;;;;;;5080759;28;20202;-75
2021/05/26 08:50:45;;;;;;;1.90;1.00;;;;;;;;;;5021380;28;20528;-87
2021/05/26 08:54:25;;;;;;;2.40;0.90;;;;;;;;;;5013651;28;20533;-87
2021/05/26 08:57:41;;;;;;;2.87;0.87;;;;;;;;;;5006928;28;20190;-87
2021/05/26 09:00:47;;;;;;;2.50;0.80;;;;;;;;;;5004833;28;20217;-87
2021/05/26 09:04:26;;;;;;;3.63;0.90;;;;;;;;;;5022152;28;20188;-87
2021/05/26 09:07:33;;;;;;;2.10;0.83;;;;;;;;;;4998822;28;20197;-87
2021/05/26 09:10:58;;;;;;;1.17;0.80;;;;;;;;;;5001635;28;20197;-86
2021/05/26 09:14:12;;;;;;;1.83;0.73;;;;;;;;;;5019787;28;20189;-87
2021/05/26 09:17:16;;;;;;;1.70;0.97;;;;;;;;;;5001229;28;20186;-87
2021/05/26 09:20:29;;;;;;;0.80;0.70;;;;;;;;;;5012202;28;20212;-87
2021/05/26 09:23:33;;;;;;;1.83;0.70;;;;;;;;;;4996209;28;20525;-87
2021/05/26 09:26:50;;;;;;;3.57;0.73;;;;;;;;;;5009711;28;20188;-87
2021/05/26 09:29:55;;;;;;;2.10;0.80;;;;;;;;;;5012435;28;20178;-86
2021/05/26 09:37:43;;;;;;;3.93;1.10;;;;;;;;;;5024018;28;20193;-86
2021/05/26 09:40:56;;;;;;;2.13;1.13;;;;;;;;;;5012296;28;20217;-86
2021/05/26 09:44:11;;;;;;;2.73;1.00;;;;;;;;;;5015145;28;20213;-86
2021/05/26 09:47:33;;;;;;;1.60;0.70;;;;;;;;;;5000227;28;20194;-86
2021/05/26 09:50:37;;;;;;;4.37;1.30;;;;;;;;;;5006296;28;20634;-86
2021/05/26 09:53:41;;;;;;;1.53;0.70;;;;;;;;;;5023771;28;20544;-85
2021/05/26 09:56:51;;;;;;;3.33;0.83;;;;;;;;;;5023725;28;20200;-85
2021/05/26 09:59:56;;;;;;;2.57;0.90;;;;;;;;;;5001672;28;20221;-86
2021/05/26 10:03:00;;;;;;;2.60;0.90;;;;;;;;;;5016043;28;20568;-87
2021/05/26 10:06:06;;;;;;;2.23;0.83;;;;;;;;;;4989332;28;20629;-86
2021/05/26 10:09:32;;;;;;;2.57;1.00;;;;;;;;;;5030791;28;20205;-86
2021/05/26 10:13:02;;;;;;;2.07;1.10;;;;;;;;;;5015766;28;20231;-86
2021/05/26 10:16:07;;;;;;;2.47;1.33;;;;;;;;;;4996259;28;20193;-86
2021/05/26 10:19:13;;;;;;;3.03;1.30;;;;;;;;;;5023784;28;20513;-86
2021/05/26 10:22:19;;;;;;;3.23;1.10;;;;;;;;;;5064927;22;20226;-73
2021/05/26 10:25:24;;;;;;;2.07;1.30;;;;;;;;;;5093978;28;20514;-73
2021/05/26 10:28:31;;;;;;;3.97;1.30;;;;;;;;;;5095654;28;20171;-73
2021/05/26 10:31:36;;;;;;;1.70;1.10;;;;;;;;;;5082010;28;20616;-73
2021/05/26 10:34:43;;;;;;;4.17;1.30;;;;;;;;;;5080936;28;20190;-73
2021/05/26 10:37:57;;;;;;;13.23;8.13;;;;;;;;;;5076773;28;20191;-72
2021/05/26 10:41:02;;;;;;;26.60;17.00;;;;;;;;;;5087451;28;20203;-73
2021/05/26 10:44:06;;;;;;;11.23;7.87;;;;;;;;;;5094065;28;20238;-75
2021/05/26 10:47:35;;;;;;;5.10;3.40;;;;;;;;;;5093882;28;20191;-76
2021/05/26 10:50:55;;;;;;;3.73;1.30;;;;;;;;;;5093270;28;20191;-75
2021/05/26 10:53:59;;;;;;;3.70;1.80;;;;;;;;;;5094402;28;20557;-76
2021/05/26 10:57:04;;;;;;;4.00;1.70;;;;;;;;;;5093092;28;20617;-76
2021/05/26 11:00:22;;;;;;;4.90;1.70;;;;;;;;;;5076688;28;20545;-75
2021/05/26 11:03:27;;;;;;;5.97;2.60;;;;;;;;;;5093838;28;20550;-75
2021/05/26 11:06:35;;;;;;;2.23;1.20;;;;;;;;;;5094440;28;20534;-74
2021/05/26 11:09:57;;;;;;;3.00;1.10;;;;;;;;;;5074315;28;20530;-74
2021/05/26 11:13:01;;;;;;;3.20;1.30;;;;;;;;;;5081384;28;20574;-74
2021/05/26 11:16:05;;;;;;;2.97;1.40;;;;;;;;;;5086122;28;21006;-75
2021/05/26 11:19:16;;;;;;;6.17;3.73;;;;;;;;;;5079153;28;20195;-75
2021/05/26 11:22:24;;;;;;;3.90;2.00;;;;;;;;;;5075161;28;20219;-75
2021/05/26 11:25:29;;;;;;;4.20;3.10;;;;;;;;;;5088406;28;20199;-75
2021/05/26 11:28:37;;;;;;;8.50;4.40;;;;;;;;;;5091648;28;20187;-75
2021/05/26 11:31:41;;;;;;;4.73;4.00;;;;;;;;;;5093668;28;20187;-76
2021/05/26 11:34:48;;;;;;;3.37;2.40;;;;;;;;;;5093825;28;20518;-75
2021/05/26 11:37:52;;;;;;;3.60;1.90;;;;;;;;;;5080800;28;20539;-76
2021/05/26 11:40:58;;;;;;;3.40;1.37;;;;;;;;;;5082197;28;20576;-75
2021/05/26 11:44:03;;;;;;;4.30;1.60;;;;;;;;;;5078956;28;20690;-76
2021/05/26 11:47:08;;;;;;;2.20;1.47;;;;;;;;;;5084671;28;20187;-75
2021/05/26 11:50:15;;;;;;;3.20;1.50;;;;;;;;;;5061756;28;20176;-75
2021/05/26 11:53:21;;;;;;;5.80;1.93;;;;;;;;;;5072738;28;20559;-75
2021/05/26 11:56:25;;;;;;;2.03;1.40;;;;;;;;;;5072471;28;20183;-76
2021/05/26 11:59:29;;;;;;;2.70;1.50;;;;;;;;;;5073817;28;20515;-76
2021/05/26 12:02:34;;;;;;;3.07;1.30;;;;;;;;;;5072350;28;20203;-77
2021/05/26 12:05:47;;;;;;;5.87;1.60;;;;;;;;;;5093625;28;20187;-76
2021/05/26 12:08:53;;;;;;;3.23;1.23;;;;;;;;;;5093873;28;20186;-76
2021/05/26 12:11:57;;;;;;;5.10;1.77;;;;;;;;;;5093502;28;20609;-76
2021/05/26 12:15:03;;;;;;;4.60;1.50;;;;;;;;;;5093841;28;20179;-76
2021/05/26 12:18:08;;;;;;;3.17;1.80;;;;;;;;;;5092847;28;20194;-75
2021/05/26 12:21:14;;;;;;;4.30;1.50;;;;;;;;;;5093250;28;20218;-76
2021/05/26 12:24:18;;;;;;;5.23;1.40;;;;;;;;;;5093759;28;20179;-76
2021/05/26 12:27:32;;;;;;;6.87;1.77;;;;;;;;;;5093433;28;20178;-76
2021/05/26 12:30:36;;;;;;;4.37;1.70;;;;;;;;;;5081064;28;20183;-76
2021/05/26 12:33:45;;;;;;;8.40;2.00;;;;;;;;;;5089572;28;20206;-77
2021/05/26 12:36:52;;;;;;;3.57;1.60;;;;;;;;;;5093390;28;20175;-77
2021/05/26 12:39:56;;;;;;;4.67;1.47;;;;;;;;;;5092249;28;20194;-77
2021/05/26 12:43:01;;;;;;;4.60;2.40;;;;;;;;;;5072965;28;20211;-77
2021/05/26 12:46:05;;;;;;;3.47;1.63;;;;;;;;;;5062058;28;20186;-77
2021/05/26 12:49:27;;;;;;;4.53;1.97;;;;;;;;;;5079919;28;20183;-76
2021/05/26 12:52:31;;;;;;;6.13;1.70;;;;;;;;;;5072919;28;20215;-75
2021/05/26 12:55:36;;;;;;;3.57;1.90;;;;;;;;;;5089650;28;20187;-74
2021/05/26 12:58:44;;;;;;;4.50;2.10;;;;;;;;;;5092868;28;20179;-74
2021/05/26 13:02:11;;;;;;;4.13;2.10;;;;;;;;;;5079808;28;20218;-74
2021/05/26 13:05:31;;;;;;;7.57;4.13;;;;;;;;;;5072657;28;20187;-73
2021/05/26 13:08:35;;;;;;;7.50;2.23;;;;;;;;;;5073040;28;20192;-74
2021/05/26 13:11:43;;;;;;;5.53;3.07;;;;;;;;;;5077480;28;20191;-74
2021/05/26 13:14:47;;;;;;;7.20;3.80;;;;;;;;;;5089020;28;20202;-74
2021/05/26 13:17:53;;;;;;;5.33;2.40;;;;;;;;;;5086837;28;20199;-76
2021/05/26 13:20:59;;;;;;;4.53;2.03;;;;;;;;;;5083741;28;20210;-76
2021/05/26 13:24:03;;;;;;;4.43;1.93;;;;;;;;;;5089925;28;20561;-76
2021/05/26 13:27:08;;;;;;;6.70;2.60;;;;;;;;;;5076027;28;20187;-75
2021/05/26 13:30:13;;;;;;;4.67;2.47;;;;;;;;;;5077094;28;20539;-75
2021/05/26 13:33:18;;;;;;;8.17;2.40;;;;;;;;;;5091742;28;20218;-75
2021/05/26 13:36:23;;;;;;;6.77;2.47;;;;;;;;;;5075300;28;20188;-75
2021/05/26 13:39:27;;;;;;;4.53;2.33;;;;;;;;;;5080331;28;20187;-75
2021/05/26 13:42:34;;;;;;;5.83;2.70;;;;;;;;;;5082493;28;20689;-75
2021/05/26 13:45:39;;;;;;;7.43;2.97;;;;;;;;;;5095762;28;20195;-75
2021/05/26 13:48:43;;;;;;;7.43;2.60;;;;;;;;;;5096513;28;20179;-75
2021/05/26 13:51:47;;;;;;;10.97;2.83;;;;;;;;;;5085779;28;20179;-74
2021/05/26 13:54:51;;;;;;;5.90;2.80;;;;;;;;;;5075595;28;20176;-75
2021/05/26 13:58:01;;;;;;;8.70;3.00;;;;;;;;;;5092622;28;20523;-74
2021/05/26 14:01:05;;;;;;;4.07;2.50;;;;;;;;;;5078527;28;20685;-74
2021/05/26 14:04:09;;;;;;;5.67;2.77;;;;;;;;;;5086066;28;20223;-74
2021/05/26 14:07:13;;;;;;;8.90;2.83;;;;;;;;;;5086358;28;20195;-75
2021/05/26 14:10:19;;;;;;;8.53;4.30;;;;;;;;;;5071893;28;20191;-75
2021/05/26 14:13:23;;;;;;;29.70;13.10;;;;;;;;;;5071895;28;20694;-75
2021/05/26 14:16:27;;;;;;;19.73;7.20;;;;;;;;;;5082113;28;20197;-76
2021/05/26 14:19:32;;;;;;;11.40;5.77;;;;;;;;;;5072315;28;20180;-75
2021/05/26 14:22:36;;;;;;;8.43;3.17;;;;;;;;;;5071355;28;20219;-75
2021/05/26 14:25:40;;;;;;;7.83;3.30;;;;;;;;;;5072695;28;20191;-75
2021/05/26 14:28:44;;;;;;;8.77;2.97;;;;;;;;;;5082590;28;20194;-75
2021/05/26 14:31:49;;;;;;;7.03;2.83;;;;;;;;;;5091299;28;20187;-75
2021/05/26 14:34:54;;;;;;;11.30;4.30;;;;;;;;;;5090450;28;20191;-75
2021/05/26 14:38:05;;;;;;;56.37;24.90;;;;;;;;;;5089092;28;20191;-75
2021/05/26 14:41:11;;;;;;;53.10;23.00;;;;;;;;;;5078692;28;20186;-75
2021/05/26 14:44:15;;;;;;;27.97;9.00;;;;;;;;;;5072537;28;20234;-75
2021/05/26 14:47:20;;;;;;;9.33;3.90;;;;;;;;;;5076110;28;20186;-75
2021/05/26 14:50:24;;;;;;;22.40;9.20;;;;;;;;;;5082828;28;20188;-75
2021/05/26 14:53:30;;;;;;;35.43;14.83;;;;;;;;;;5070441;28;20596;-74
2021/05/26 14:56:34;;;;;;;7.27;3.10;;;;;;;;;;5072105;28;20194;-74
2021/05/26 14:59:40;;;;;;;12.27;5.27;;;;;;;;;;5096977;22;20226;-74
2021/05/26 15:02:44;;;;;;;36.30;12.77;;;;;;;;;;5071844;28;20223;-73
2021/05/26 15:05:48;;;;;;;50.03;18.33;;;;;;;;;;5073870;28;20198;-74
2021/05/26 15:08:53;;;;;;;17.47;5.80;;;;;;;;;;5062989;28;20210;-74
2021/05/26 15:11:57;;;;;;;27.20;9.73;;;;;;;;;;5061390;28;20183;-74
2021/05/26 15:15:01;;;;;;;13.53;6.63;;;;;;;;;;5048656;28;20290;-74
2021/05/26 15:18:05;;;;;;;4.40;2.50;;;;;;;;;;5047346;28;20187;-75
2021/05/26 15:21:10;;;;;;;4.90;2.43;;;;;;;;;;5073951;28;20191;-74
2021/05/26 15:24:14;;;;;;;7.23;2.80;;;;;;;;;;5061211;28;20215;-74
2021/05/26 15:27:18;;;;;;;5.37;2.23;;;;;;;;;;5049828;28;20195;-74
2021/05/26 15:30:22;;;;;;;4.63;2.73;;;;;;;;;;5054296;28;20180;-74
2021/05/26 15:33:26;;;;;;;5.00;2.10;;;;;;;;;;5072256;28;20227;-74
2021/05/26 15:36:31;;;;;;;6.33;3.10;;;;;;;;;;5073101;28;20195;-74
2021/05/26 15:39:36;;;;;;;3.87;2.13;;;;;;;;;;5074359;28;20175;-74
2021/05/26 15:42:39;;;;;;;5.63;2.13;;;;;;;;;;5073222;28;20697;-74
2021/05/26 15:45:44;;;;;;;3.40;2.10;;;;;;;;;;5061945;28;20187;-74
2021/05/26 15:48:48;;;;;;;3.43;1.93;;;;;;;;;;5073780;28;20203;-74
2021/05/26 15:51:52;;;;;;;3.73;2.03;;;;;;;;;;5073672;28;20195;-74
2021/05/26 15:54:57;;;;;;;4.57;2.23;;;;;;;;;;5060863;28;20195;-74
2021/05/26 15:58:01;;;;;;;7.67;2.17;;;;;;;;;;5073010;28;20195;-75
2021/05/26 16:01:07;;;;;;;5.07;2.17;;;;;;;;;;5073229;28;20203;-74
2021/05/26 16:04:11;;;;;;;7.70;2.33;;;;;;;;;;5069589;28;20219;-74
2021/05/26 16:07:16;;;;;;;8.27;2.17;;;;;;;;;;5069358;28;20191;-74
2021/05/26 16:10:21;;;;;;;6.50;2.70;;;;;;;;;;5065015;28;20199;-74
2021/05/26 16:13:25;;;;;;;4.07;2.10;;;;;;;;;;5069618;28;20215;-75
2021/05/26 16:16:29;;;;;;;8.00;3.20;;;;;;;;;;5069436;28;20195;-74
2021/05/26 16:19:33;;;;;;;6.47;2.63;;;;;;;;;;5064546;28;20191;-75
2021/05/26 16:22:38;;;;;;;7.90;2.17;;;;;;;;;;5036944;28;20228;-74
2021/05/26 16:25:42;;;;;;;5.23;2.03;;;;;;;;;;5060989;28;20187;-74
2021/05/26 16:28:48;;;;;;;4.60;2.07;;;;;;;;;;5056984;28;20653;-74
2021/05/26 16:31:54;;;;;;;4.87;1.93;;;;;;;;;;5068455;28;20183;-74
2021/05/26 16:34:58;;;;;;;5.87;2.27;;;;;;;;;;5056746;28;20187;-74
2021/05/26 16:38:02;;;;;;;6.40;2.23;;;;;;;;;;5068831;28;20657;-74
2021/05/26 16:41:07;;;;;;;4.53;1.80;;;;;;;;;;5056781;28;20176;-74
2021/05/26 16:44:11;;;;;;;3.43;1.97;;;;;;;;;;5059248;28;20203;-74
2021/05/26 16:47:17;;;;;;;4.90;2.20;;;;;;;;;;5073210;28;20199;-75
2021/05/26 16:50:22;;;;;;;3.70;1.80;;;;;;;;;;5072858;28;20176;-74
2021/05/26 16:53:26;;;;;;;3.07;1.87;;;;;;;;;;5072976;28;20219;-74
2021/05/26 16:56:33;;;;;;;3.77;1.70;;;;;;;;;;5072678;28;20191;-74
2021/05/26 16:59:37;;;;;;;5.80;2.37;;;;;;;;;;5072457;28;20211;-74
2021/05/26 17:02:42;;;;;;;3.67;1.80;;;;;;;;;;5059916;28;20219;-74
2021/05/26 17:05:46;;;;;;;6.53;2.03;;;;;;;;;;5072821;28;20195;-75
2021/05/26 17:08:50;;;;;;;5.83;1.50;;;;;;;;;;5073159;28;20175;-74
2021/05/26 17:11:54;;;;;;;4.37;1.90;;;;;;;;;;5073668;28;20180;-74
2021/05/26 17:14:58;;;;;;;6.63;1.73;;;;;;;;;;5053390;28;20177;-74
2021/05/26 17:18:02;;;;;;;6.27;2.17;;;;;;;;;;5067987;28;20187;-74
2021/05/26 17:21:07;;;;;;;6.83;2.53;;;;;;;;;;5061211;28;20191;-74
2021/05/26 17:24:13;;;;;;;13.63;8.90;;;;;;;;;;5072988;28;20227;-74
2021/05/26 17:27:17;;;;;;;5.23;2.90;;;;;;;;;;5060693;28;20191;-74
2021/05/26 17:30:24;;;;;;;4.30;1.83;;;;;;;;;;5060893;28;20206;-74
2021/05/26 17:33:29;;;;;;;3.03;1.90;;;;;;;;;;5062188;28;20215;-74
2021/05/26 17:36:33;;;;;;;5.07;1.83;;;;;;;;;;5076363;28;20190;-74
2021/05/26 17:39:37;;;;;;;5.13;2.03;;;;;;;;;;5088865;28;20191;-76
2021/05/26 17:42:42;;;;;;;6.53;1.80;;;;;;;;;;5081369;28;20222;-76
2021/05/26 17:45:47;;;;;;;4.47;1.73;;;;;;;;;;5094060;28;20175;-76
2021/05/26 17:48:51;;;;;;;3.87;1.80;;;;;;;;;;5052654;28;20183;-76
2021/05/26 17:51:56;;;;;;;4.60;1.40;;;;;;;;;;5073436;28;20175;-77
2021/05/26 17:55:01;;;;;;;4.63;1.60;;;;;;;;;;5071846;28;20251;-77
2021/05/26 17:58:07;;;;;;;5.60;2.23;;;;;;;;;;5072124;28;20681;-77
2021/05/26 18:01:11;;;;;;;4.90;2.20;;;;;;;;;;5071591;28;20207;-77
2021/05/26 18:04:15;;;;;;;5.13;1.80;;;;;;;;;;5059469;28;20230;-77
2021/05/26 18:07:20;;;;;;;15.50;6.90;;;;;;;;;;5060384;28;20188;-78
2021/05/26 18:10:28;;;;;;;7.53;2.40;;;;;;;;;;5061506;28;20930;-77
2021/05/26 18:13:32;;;;;;;4.47;1.70;;;;;;;;;;5048555;28;20211;-78
2021/05/26 18:16:37;;;;;;;3.87;2.20;;;;;;;;;;5049976;28;20195;-79
2021/05/26 18:19:42;;;;;;;5.63;2.30;;;;;;;;;;5049097;28;20195;-76
2021/05/26 18:22:46;;;;;;;7.93;2.87;;;;;;;;;;5072663;28;20227;-76
2021/05/26 18:25:51;;;;;;;6.10;2.23;;;;;;;;;;5072160;28;20192;-76
2021/05/26 18:28:55;;;;;;;4.47;2.30;;;;;;;;;;5073014;28;20184;-77
2021/05/26 18:32:00;;;;;;;4.00;2.13;;;;;;;;;;5052978;28;20200;-76
2021/05/26 18:35:05;;;;;;;6.80;2.87;;;;;;;;;;5053260;28;20524;-76
2021/05/26 18:38:11;;;;;;;9.37;2.10;;;;;;;;;;5050569;28;20202;-77
2021/05/26 18:41:15;;;;;;;8.03;2.70;;;;;;;;;;5060143;28;20183;-76
2021/05/26 18:44:19;;;;;;;6.53;3.53;;;;;;;;;;5049046;28;20688;-76
2021/05/26 18:47:24;;;;;;;4.40;2.60;;;;;;;;;;5072068;28;20192;-76
2021/05/26 18:50:31;;;;;;;6.40;3.10;;;;;;;;;;5072049;28;20202;-76
2021/05/26 18:53:36;;;;;;;7.50;3.00;;;;;;;;;;5072118;28;20721;-76